Weather observations for the past three days for
Rochester - St. Mary's Hospital Heliport
Metric (Imperial)
Date Time (cdt) Wind (kph) Vis. (km) Weather Sky Cond. Temperature (ºC) Relative Humidity Wind Chill (°C) Heat Index (°C) Pressure Precipitation (cm)
Air Dwpt 6 hour altimeter (cm) sea level (mb) 1 hr 3 hr 6 hr
Max. Min.
08 03:15 S 7 16.09 Fair CLR 6.8 -8.1 34% 6 75.74 0.0
08 02:55 S 13 16.09 Fair CLR 6.8 -8.5 33% 5 75.74 0.0
08 02:35 S 9 16.09 Fair CLR 6.7 -8 35% 5 75.77 0.0
08 02:15 S 9 16.09 Fair CLR 7.1 -8.1 33% 6 75.77 0.0
08 01:55 S 9 16.09 Fair CLR 7.1 -7.9 34% 6 75.77 0.0
08 01:35 S 11 16.09 Fair CLR 6.6 -7.7 36% 5 75.79 0.0
08 01:15 SE 9 16.09 Fair CLR 6.5 -7.1 37% 5 75.79 0.0
08 00:55 SE 7 16.09 Fair CLR 6.6 -7.3 13.5 6 37% 5 75.82 0.0
08 00:35 SE 7 16.09 Fair CLR 6.2 -5.9 42% 5 75.82 0.0
08 00:15 SE 7 16.09 Fair CLR 7.2 -6.7 37% 6 75.82 0.0
07 23:55 SE 6 16.09 Fair CLR 7 -6 39% 75.82 0.0
07 23:35 SE 9 16.09 Fair CLR 7.5 -6.4 37% 6 75.82 0.0
07 23:15 Calm 16.09 Fair CLR 8.2 -6.5 35% 75.82 0.0
07 22:55 SE 6 16.09 Fair CLR 8.8 -6.9 33% 75.82 0.0
07 22:35 SE 6 16.09 Fair CLR 9 -7.6 30% 75.84 0.0
07 22:15 SE 6 16.09 Fair CLR 9.8 -8 28% 75.82 0.0
07 21:55 E 6 16.09 Fair CLR 10.1 -7.9 28% 75.82 0.0
07 21:35 SE 6 16.09 Fair CLR 10.6 -8 26% 75.82 0.0
07 21:15 Calm 16.09 Fair CLR 11.4 -7.8 25% 75.82 0.0
07 20:55 NE 6 16.09 Fair CLR 11.7 -8.1 24% 75.79 0.0
07 20:35 NE 6 16.09 Fair CLR 12.1 -7.9 24% 75.77 0.0
07 20:15 N 6 16.09 Fair CLR 12.6 -8.7 22% 75.77 0.0
07 19:55 NW 6 16.09 Fair CLR 13 -8.8 21% 75.77 0.0
07 19:35 N 6 16.09 Fair CLR 13.1 -8.7 21% 75.77 0.0
07 19:15 NW 9 16.09 Fair CLR 13.4 -9 20% 75.77 0.0
07 18:55 NW 13 16.09 Fair CLR 13.5 -9.1 13.9 10.9 20% 75.77 0.0
07 18:35 NW 17 G 26 16.09 Fair CLR 13.5 -9 20% 75.77 0.0
07 18:15 NW 19 G 30 16.09 Fair CLR 13.6 -9 20% 75.77 0.0
07 17:55 NW 9 G 31 16.09 Fair CLR 13.4 -9 20% 75.79 0.0
07 17:35 W 15 G 35 16.09 Fair CLR 13.3 -9 20% 75.77 0.0
07 17:15 NW 15 G 26 16.09 Fair CLR 13.7 -9.1 20% 75.79 0.0
07 16:55 W 20 G 31 16.09 Fair CLR 13.3 -9.1 20% 75.77 0.0
07 16:35 NW 22 G 28 16.09 Fair CLR 13.8 -8.7 20% 75.77 0.0
07 16:15 NW 11 16.09 Fair CLR 13.5 -8.9 20% 75.79 0.0
07 15:55 NW 20 G 31 16.09 Fair CLR 13 -9.2 21% 75.79 0.0
07 15:35 W 13 G 35 16.09 Fair CLR 12.8 -9.2 21% 75.79 0.0
07 15:15 W 17 G 35 16.09 Fair CLR 12.6 -9.1 21% 75.82 0.0
07 14:55 NW 11 G 30 16.09 Fair CLR 12.5 -9.2 21% 75.82 0.0
07 14:35 W 20 G 35 16.09 Fair CLR 13.3 -8.2 22% 75.82 0.0
07 14:15 W 7 G 33 16.09 Fair CLR 12.2 -8.5 23% 75.84 0.0
07 13:55 NW 17 G 26 16.09 Fair CLR 11.4 -8.8 24% 75.84 0.0
07 13:35 NW 15 G 31 16.09 Fair CLR 11.1 -8.7 24% 75.84 0.0
07 13:15 NW 17 G 33 16.09 Fair CLR 11.5 -8.2 25% 75.87 0.0
07 12:55 NW 13 16.09 Fair CLR 11.2 -8 11.4 2.6 25% 75.87 0.0
07 12:35 W 7 16.09 Fair CLR 10.5 -7.7 27% 75.9 0.0
07 12:15 NW 9 16.09 Fair CLR 10.9 -6 30% 75.9 0.0
07 11:55 NW 19 G 26 16.09 Fair CLR 9.6 -7.9 29% 7 75.92 0.0
07 11:35 Calm 16.09 Fair CLR 9.5 -6.5 32% 75.92 0.0
07 11:15 NW 13 G 30 16.09 Fair CLR 9.5 -5.3 35% 8 75.92 0.0
07 10:55 NW 6 16.09 Fair CLR 9.4 -5.1 36% 75.92 0.0
07 10:35 NW 7 16.09 Fair CLR 9.1 -4.7 38% 8 75.95 0.0
07 10:15 Calm 16.09 Fair CLR 8.1 -4 43% 75.95 0.0
07 09:55 W 6 16.09 Partly Cloudy SCT080 7.7 -3.6 45% 75.95 0.0
07 09:35 NW 6 16.09 Overcast SCT040 BKN060 OVC075 7.1 -4.2 45% 75.97 0.0
07 09:15 W 6 16.09 Overcast SCT050 SCT060 OVC085 6.7 -4 47% 76 0.0
07 08:55 Calm 16.09 Overcast SCT055 SCT070 OVC085 6.1 -5 45% 76 0.0
07 08:35 Calm 16.09 Overcast SCT048 BKN050 OVC085 4.7 -3.9 54% 76 0.0
07 08:15 Calm 16.09 Overcast OVC050 3.7 -3.4 60% 76 0.0
07 07:55 Calm 16.09 Overcast SCT055 OVC065 3.9 -3 61% 76 0.0
07 07:35 Calm 16.09 Overcast OVC075 3.3 -3.1 63% 76.02 0.0
07 07:15 Calm 16.09 Overcast SCT060 OVC075 2.9 -3.2 65% 76.02 0.0
07 06:55 Calm 16.09 Overcast SCT055 SCT065 OVC075 2.5 -3 3.1 1.8 67% 76 0.0
07 06:35 Calm 16.09 Overcast BKN070 OVC080 2.1 -3.7 66% 76 0.0
07 06:15 Calm 16.09 Overcast SCT080 OVC085 2 -4.4 63% 76 0.0
07 05:55 Calm 16.09 Overcast SCT075 OVC095 1.8 -4.2 65% 76 0.0
07 05:35 Calm 16.09 Mostly Cloudy BKN095 BKN110 2.2 -4.1 63% 76 0.0
07 05:15 S 6 16.09 Fair CLR 2.2 -4.3 63% 76.02 0.0
07 04:55 Calm 16.09 Fair CLR 2.1 -4.4 62% 76.02 0.0
07 04:35 Calm 16.09 Fair CLR 2.1 -4.5 62% 76.02 0.0
07 04:15 Calm 16.09 Fair CLR 2.1 -4.3 63% 76.05 0.0
07 03:55 S 6 16.09 Fair CLR 2 -4.2 64% 76.05 0.0
07 03:35 S 6 16.09 Fair CLR 2.1 -4.2 63% 76.05 0.0
07 03:15 Calm 16.09 Partly Cloudy SCT110 2.1 -4.1 64% 76.05 0.0
07 02:55 S 6 16.09 Partly Cloudy SCT090 SCT110 2.2 -4.3 63% 76.05 0.0
07 02:35 Calm 16.09 Mostly Cloudy BKN080 BKN110 2.7 -4 62% 76.07 0.0
07 02:15 Calm 16.09 Overcast OVC080 2.8 -3.6 63% 76.1 0.0
07 01:55 Calm 16.09 Overcast OVC090 2.8 -3.8 62% 76.1 0.0
07 01:35 Calm 16.09 Overcast SCT080 OVC090 2.9 -3.8 62% 76.1 0.0
07 01:15 Calm 16.09 Overcast BKN080 OVC100 2.6 -3.5 64% 76.12 0.0
07 00:55 Calm 16.09 Overcast SCT075 OVC090 2.8 -4.3 7.1 1.7 60% 76.12 0.0
07 00:35 Calm 16.09 Mostly Cloudy BKN090 2.5 -3.9 63% 76.12 0.0
07 00:15 Calm 16.09 Partly Cloudy SCT080 2.3 -3.7 65% 76.12 0.0
06 23:55 Calm 16.09 Fair CLR 3.1 -3.8 61% 76.12 0.0
06 23:35 Calm 16.09 Fair CLR 3.2 -4.1 59% 76.15 0.0
06 23:15 Calm 16.09 Fair CLR 4 -4.6 54% 76.15 0.0
06 22:55 Calm 16.09 Fair CLR 4.2 -4.6 53% 76.15 0.0
06 22:35 Calm 16.09 Fair CLR 5 -4.9 49% 76.17 0.0
06 22:15 Calm 16.09 Fair CLR 5.2 -4.9 48% 76.17 0.0
06 21:55 Calm 16.09 Fair CLR 5.8 -5.5 44% 76.17 0.0
06 21:35 Calm 16.09 Fair CLR 5.8 -5 46% 76.2 0.0
06 21:15 Calm 16.09 Fair CLR 6.1 -5.5 44% 76.17 0.0
06 20:55 NW 11 16.09 Fair CLR 6.1 -5.9 42% 4 76.17 0.0
06 20:35 W 13 16.09 Fair CLR 6.2 -6 42% 4 76.17 0.0
06 20:15 NW 11 16.09 Partly Cloudy SCT060 6.5 -6 41% 5 76.17 0.0
06 19:55 W 11 16.09 Overcast OVC060 7 -5.7 40% 5 76.17 0.0
06 19:35 NW 13 16.09 Overcast OVC060 6.8 -6 40% 5 76.17 0.0
06 19:15 NW 17 G 26 16.09 Mostly Cloudy BKN050 7 -6.1 39% 4 76.17 0.0
06 18:55 NW 20 16.09 Mostly Cloudy BKN050 7.3 -6.3 7.6 4.5 38% 4 76.17 0.0
06 18:35 NW 17 G 28 16.09 Mostly Cloudy BKN050 7 -6.4 38% 4 76.17 0.0
06 18:15 NW 17 G 26 16.09 Mostly Cloudy BKN050 7 -6.5 38% 4 76.17 0.0
06 17:55 W 20 G 31 16.09 Overcast OVC050 7.1 -6.2 39% 4 76.17 0.0
06 17:35 W 15 G 26 16.09 Overcast OVC050 7 -6.1 39% 5 76.17 0.0
06 17:15 W 17 G 30 16.09 Overcast OVC050 6.5 -6.5 39% 4 76.2 0.0
06 16:55 NW 22 G 33 16.09 Overcast OVC050 6.6 -6.4 39% 3 76.17 0.0
06 16:35 W 13 16.09 Overcast OVC050 6.5 -6.3 40% 4 76.2 0.0
06 16:15 W 20 G 31 16.09 Overcast OVC050 6 -6.5 41% 3 76.23 0.0
06 15:55 NW 11 G 33 16.09 Overcast OVC050 6 -6.5 41% 4 76.25 0.0
06 15:35 NW 26 G 33 16.09 Overcast OVC048 5.8 -6.6 41% 2 76.23 0.0
06 15:15 W 17 G 30 16.09 Overcast OVC048 5.8 -6.5 41% 3 76.25 0.0
06 14:55 W 13 16.09 Overcast OVC046 5.5 -6.6 42% 3 76.25 0.0
06 14:35 W 22 G 31 16.09 Overcast OVC048 5.2 -6.9 42% 1 76.25 0.0
06 14:15 W 22 G 31 16.09 Overcast OVC048 5.1 -6.8 42% 1 76.25 0.0
06 13:55 W 15 G 26 16.09 Overcast OVC048 5.4 -6.6 42% 3 76.25 0.0
06 13:35 W 22 G 31 16.09 Overcast OVC048 5 -6.9 42% 1 76.25 0.0
06 13:15 NW 19 G 30 16.09 Overcast OVC048 4.7 -7.3 42% 1 76.25 0.0
06 12:55 NW 20 G 30 16.09 Overcast OVC047 4.5 -7 4.8 1.1 43% 1 76.25 0.0
06 12:35 NW 22 G 30 16.09 Overcast OVC048 4.7 -6.7 44% 1 76.28 0.0
06 12:15 W 19 G 33 16.09 Overcast BKN044 OVC050 4.8 -6.7 43% 1 76.28 0.0
06 11:55 NW 17 G 41 16.09 Overcast BKN042 OVC050 4.5 -6.8 44% 1 76.3 0.0
06 11:35 W 30 G 41 16.09 Overcast BKN044 OVC050 4.4 -6.8 44% -0 76.28 0.0
06 11:15 NW 28 G 37 16.09 Overcast SCT042 OVC050 4.1 -7.1 44% -1 76.28 0.0
06 10:55 NW 22 G 28 16.09 Overcast SCT042 OVC050 4.8 -6.8 43% 1 76.25 0.0
06 10:35 W 13 G 30 16.09 Overcast SCT042 OVC050 4.5 -6.7 44% 2 76.25 0.0
06 10:15 NW 17 G 31 16.09 Overcast OVC050 4.4 -6.8 44% 1 76.25 0.0
06 09:55 NW 20 G 28 16.09 Overcast OVC050 4 -7 45% 0 76.25 0.0
06 09:35 W 15 G 33 16.09 Overcast OVC050 4.1 -7.1 44% 1 76.25 0.0
06 09:15 NW 20 G 28 16.09 Overcast OVC050 4 -7.1 45% 0 76.25 0.0
06 08:55 W 17 G 30 16.09 Overcast OVC050 4.2 -6.1 47% 1 76.25 0.0
06 08:35 W 7 16.09 Overcast OVC050 4.1 -5.8 49% 3 76.23 0.0
06 08:15 Calm 16.09 Mostly Cloudy BKN050 3.5 -5 54% 76.23 0.0
06 07:55 W 7 16.09 Partly Cloudy SCT050 2.5 -4.9 59% 1 76.23 0.0
06 07:35 W 7 16.09 Fair CLR 1.8 -5.2 60% -0 76.17 0.0
06 07:15 W 6 16.09 Fair CLR 1.4 -5.3 61% 76.17 0.0
06 06:55 Calm 16.09 Fair CLR 1.3 -4.9 4.3 0.6 64% 76.17 0.0
06 06:35 Calm 16.09 Fair CLR 1.3 -4.7 65% 76.12 0.0
06 06:15 Calm 16.09 Fair CLR 1.2 -4.9 64% 76.12 0.0
06 05:55 Calm 16.09 Fair CLR 0.6 -5 66% 76.12 0.0
06 05:35 Calm 16.09 Fair CLR 1.1 -4.8 65% 76.12 0.0
06 05:15 NW 6 16.09 Fair CLR 1.1 -5.1 64% 76.1 0.0
06 04:55 NW 9 16.09 Fair CLR 1.1 -5.5 62% -1 76.12 0.0
06 04:35 NW 9 16.09 Fair CLR 1.2 -5.2 63% -1 76.07 0.0
06 04:15 W 17 16.09 Fair CLR 1.4 -5.1 62% -3 76.1 0.0
06 03:55 NW 9 16.09 Fair CLR 1.5 -5.2 61% -1 76.07 0.0
06 03:35 NW 17 16.09 Fair CLR 1.8 -5.3 60% -2 76.05 0.0
06 03:15 NW 13 16.09 Fair CLR 2.2 -5.4 58% -1 76.07 0.0
06 02:55 NW 6 16.09 Fair CLR 2.5 -5.2 57% 76.05 0.0
06 02:35 NW 15 16.09 Fair CLR 2.6 -5.3 56% -1 76.05 0.0
06 02:15 NW 11 16.09 Fair CLR 2.9 -5.1 56% 0 76.05 0.0
06 01:55 NW 9 16.09 Fair CLR 3.2 -5.2 54% 1 76.02 0.0
06 01:35 W 17 16.09 Fair CLR 3.6 -5.3 53% 0 76 0.0
06 01:15 NW 15 16.09 Fair CLR 4.1 -5.5 50% 1 76 0.0
06 00:55 NW 17 16.09 Fair CLR 4.3 -5.7 9 4.3 49% 1 76 0.0
06 00:35 NW 17 16.09 Fair CLR 4.5 -5.7 48% 1 76 0.0
06 00:15 NW 17 16.09 Fair CLR 5 -5.8 46% 2 75.97 0.0
05 23:55 NW 11 16.09 Fair CLR 5.3 -5.6 46% 3 75.97 0.0
05 23:35 W 13 G 30 16.09 Fair CLR 5.6 -5.7 44% 3 75.97 0.0
05 23:15 NW 17 16.09 Fair CLR 6 -5.7 43% 3 75.95 0.0
05 22:55 NW 20 G 33 16.09 Partly Cloudy SCT080 6.4 -6 41% 3 75.95 0.0
05 22:35 W 13 16.09 Mostly Cloudy BKN080 6.6 -5.7 41% 4 75.95 0.0
05 22:15 NW 11 16.09 Partly Cloudy SCT080 7.1 -5.6 40% 5 75.95 0.0
05 21:55 NW 11 16.09 Overcast OVC080 7.5 -5.8 39% 6 75.92 0.0
05 21:35 NW 15 16.09 Overcast OVC080 7.7 -6 38% 5 75.92 0.0
05 21:15 NW 17 16.09 Overcast OVC080 7.9 -6.1 37% 5 75.9 0.0
05 20:55 W 19 G 33 16.09 Overcast OVC080 8.2 -6.5 35% 6 75.87 0.0
05 20:35 NW 20 G 33 16.09 Overcast OVC080 8.5 -6.5 34% 6 75.84 0.0
05 20:15 NW 22 G 30 16.09 Overcast OVC080 8.6 -6.5 34% 6 75.84 0.0
05 19:55 NW 26 G 35 16.09 Overcast SCT070 OVC080 8.8 -6.7 33% 6 75.82 0.0
05 19:35 NW 15 G 26 16.09 Overcast SCT070 OVC080 8.7 -7 33% 7 75.82 0.0
05 19:15 NW 20 G 30 16.09 Overcast OVC070 9 -6.6 33% 6 75.82 0.0
05 18:55 W 22 G 35 16.09 Mostly Cloudy SCT070 BKN080 9 -6.9 10.9 8.8 32% 6 75.79 0.0
05 18:35 NW 22 G 35 16.09 Overcast SCT070 OVC080 9.3 -6.9 31% 7 75.79 0.0
05 18:15 NW 22 G 33 16.09 Overcast SCT070 OVC080 9.4 -6.9 31% 7 75.79 0.0
05 17:55 W 20 G 41 16.09 Overcast SCT070 OVC080 9.2 -6.7 32% 7 75.79 0.0
05 17:35 NW 26 G 33 16.09 Overcast OVC080 9.5 -6.8 31% 7 75.79 0.0
05 17:15 W 30 G 41 16.09 Overcast SCT070 OVC080 9.2 -6.9 32% 6 75.79 0.0
05 16:55 W 20 G 39 16.09 Overcast BKN070 OVC080 9.6 -6.8 31% 7 75.77 0.0
05 16:35 NW 20 G 31 16.09 Mostly Cloudy BKN080 10.3 -6.8 30% 75.82 0.0
05 16:15 NW 17 G 37 16.09 Mostly Cloudy SCT065 BKN080 9.9 -6.9 30% 8 75.82 0.0
05 15:55 W 24 G 39 16.09 Mostly Cloudy SCT065 BKN080 10.1 -7.2 29% 75.82 0.0
05 15:35 W 15 G 39 16.09 Mostly Cloudy SCT065 BKN080 9.8 -6.7 31% 8 75.82 0.0
05 15:15 NW 20 G 37 16.09 Mostly Cloudy SCT060 BKN075 10.2 -6.5 31% 75.82 0.0
05 14:55 W 15 G 43 16.09 Mostly Cloudy SCT060 BKN075 9.8 -7 30% 8 75.82 0.0
05 14:35 W 19 G 39 16.09 Overcast SCT060 OVC075 9.6 -6.7 31% 7 75.84 0.0
05 14:15 NW 20 G 39 16.09 Overcast OVC075 9.4 -7.3 30% 7 75.84 0.0
05 13:55 W 30 G 37 16.09 Overcast OVC070 9.1 -7.1 31% 6 75.84 0.0
05 13:49 W 19 G 37 16.09 Overcast OVC060 0 0 0% 75.84 0.0
05 13:30 W 22 16.09 Overcast SCT060 OVC070 9 -7 32% 6 75.82 0.0
05 13:07 W 19 16.09 Overcast OVC070 9 -7 32% 7 75.82 0.0
05 12:46 NW 24 16.09 Mostly Cloudy BKN070 8 -8 32% 5 75.82 0.0
05 12:26 W 24 16.09 Mostly Cloudy BKN070 9 -8 29% 6 75.82 0.0
05 12:06 W 20 16.09 Mostly Cloudy BKN070 8 -8 32% 5 75.82 0.0
05 11:46 W 13 16.09 Mostly Cloudy BKN060 BKN070 8 -8 32% 6 75.84 0.0
05 11:26 W 19 16.09 Mostly Cloudy SCT055 BKN070 8 -7 34% 5 75.84 0.0
05 11:10 NW 17 16.09 Overcast OVC055 7 -7 37% 4 75.84 0.0
05 10:50 NW 20 16.09 Overcast BKN055 OVC065 7 -7 37% 4 75.84 0.0
05 10:35 NW 22 16.09 Mostly Cloudy BKN055 7 -7 37% 4 75.84 0.0
05 10:04 NW 28 16.09 Partly Cloudy SCT055 7 -7 37% 3 75.82 0.0
05 09:49 NW 19 16.09 Fair CLR 7 -7 37% 4 75.82 0.0
05 09:21 NW 13 16.09 Fair CLR 6 -6 42% 4 75.82 0.0
05 09:05 NW 9 16.09 Fair CLR 6 -6 42% 4 75.82 0.0
05 08:46 NW 7 16.09 Fair CLR 5 -6 45% 4 75.82 0.0
05 08:27 NW 17 16.09 Fair CLR 5 -6 45% 2 75.82 0.0
05 08:09 NW 15 16.09 Fair CLR 5 -4 53% 2 75.79 0.0
05 07:50 NW 15 16.09 Fair CLR 4 -4 56% 1 75.79 0.0
05 07:28 NW 15 16.09 Fair CLR 4 -4 56% 1 75.77 0.0
05 07:05 NW 15 16.09 Fair CLR 3 -4 60% -0 75.74 0.0
05 06:46 W 7 16.09 Fair CLR 4 -4 56% 2 75.72 0.0
05 06:26 W 9 16.09 Fair CLR 4 -5 52% 2 75.67 0.0
05 06:05 W 11 16.09 Fair CLR 4 -4 56% 2 75.64 0.0
05 05:48 W 11 16.09 Fair CLR 4 -5 52% 2 75.62 0.0
05 05:30 W 11 16.09 Fair CLR 4 -5 52% 2 0 0.0
05 05:07 W 11 16.09 Fair CLR 4 -5 52% 2 75.59 0.0
05 04:45 W 17 16.09 Fair CLR 4 -5 52% 1 75.59 0.0
05 04:27 W 15 16.09 Fair CLR 4 -5 52% 1 75.59 0.0
05 04:07 W 15 16.09 Fair CLR 5 -5 49% 2 75.59 0.0
05 03:47 W 13 16.09 Fair CLR 5 -5 49% 2 75.57 0.0
Date Time (cdt) Wind (kph) Vis. (km) Weather Sky Cond. Air Dwpt Max. Min. Relative Humidity Wind Chill (°C) Heat Index (°C) altimeter (cm) sea level (mb) 1 hr 3 hr 6 hr
6 hour
Temperature (ºC) Pressure Precipitation (cm)